createdAt,value
2019-01-21T00:04:42.996Z,12.47
2019-01-21T00:10:01.614Z,12.93
2019-01-21T00:15:20.227Z,12.73
2019-01-21T00:20:38.789Z,10.90
2019-01-21T00:25:57.570Z,11.63
2019-01-21T00:31:16.126Z,11.67
2019-01-21T00:36:34.788Z,12.55
2019-01-21T00:41:53.487Z,10.63
2019-01-21T00:47:12.149Z,11.97
2019-01-21T00:52:31.033Z,9.30
2019-01-21T00:57:49.687Z,10.73
2019-01-21T01:03:08.545Z,11.17
2019-01-21T01:08:27.212Z,10.80
2019-01-21T01:13:45.922Z,11.60
2019-01-21T01:19:04.560Z,10.23
2019-01-21T01:24:23.194Z,9.23
2019-01-21T01:29:41.757Z,11.20
2019-01-21T01:35:00.394Z,11.43
2019-01-21T01:40:19.183Z,11.35
2019-01-21T01:45:37.811Z,10.57
2019-01-21T01:50:56.432Z,10.70
2019-01-21T01:56:15.387Z,10.13
2019-01-21T02:01:34.119Z,9.67
2019-01-21T02:06:52.743Z,10.27
2019-01-21T02:12:11.857Z,10.20
2019-01-21T02:17:30.502Z,10.10
2019-01-21T02:22:54.881Z,12.77
2019-01-21T02:28:24.968Z,10.27
2019-01-21T02:33:52.907Z,12.30
2019-01-21T02:39:26.575Z,11.10
2019-01-21T02:45:03.520Z,9.87
2019-01-21T02:50:25.078Z,11.27
2019-01-21T02:56:04.233Z,11.60
2019-01-21T03:01:51.289Z,9.37
2019-01-21T03:07:34.001Z,10.53
2019-01-21T03:13:10.561Z,8.80
2019-01-21T03:19:00.969Z,7.43
2019-01-21T03:24:42.412Z,8.07
2019-01-21T03:30:06.618Z,9.83
2019-01-21T03:35:57.186Z,8.00
2019-01-21T03:41:21.357Z,9.40
2019-01-21T03:47:10.902Z,8.93
2019-01-21T03:52:50.562Z,6.63
2019-01-21T03:58:23.906Z,7.37
2019-01-21T04:04:09.816Z,9.90
2019-01-21T04:09:31.615Z,7.93
2019-01-21T04:15:28.328Z,10.83
2019-01-21T04:20:58.738Z,9.57
2019-01-21T04:26:20.297Z,10.00
2019-01-21T04:31:58.545Z,9.73
2019-01-21T04:37:23.239Z,10.07
2019-01-21T04:42:51.044Z,8.43
2019-01-21T04:48:15.529Z,9.43
2019-01-21T04:53:37.147Z,9.57
2019-01-21T04:59:04.046Z,7.17
2019-01-21T05:04:34.366Z,8.45
2019-01-21T05:10:01.889Z,8.05
2019-01-21T05:15:41.469Z,6.47
2019-01-21T05:21:21.163Z,8.50
2019-01-21T05:27:14.513Z,6.40
2019-01-21T05:32:36.158Z,7.43
2019-01-21T05:38:03.354Z,7.20
2019-01-21T05:43:33.939Z,6.90
2019-01-21T05:48:56.956Z,7.63
2019-01-21T05:54:45.874Z,9.43
2019-01-21T06:00:41.785Z,7.53
2019-01-21T06:06:03.364Z,6.17
2019-01-21T06:11:25.210Z,7.97
2019-01-21T06:16:56.127Z,7.65
2019-01-21T06:22:43.302Z,8.70
2019-01-21T06:28:38.407Z,9.00
2019-01-21T06:34:31.996Z,9.00
2019-01-21T06:40:15.620Z,6.83
2019-01-21T06:45:52.386Z,8.20
2019-01-21T06:51:33.375Z,9.97
2019-01-21T06:57:01.001Z,7.03
2019-01-21T07:08:20.723Z,7.47
2019-01-21T07:13:51.143Z,8.20
2019-01-21T07:19:29.055Z,7.40
2019-01-21T07:24:56.658Z,8.10
2019-01-21T07:30:18.206Z,8.93
2019-01-21T07:35:51.803Z,8.63
2019-01-21T07:41:22.150Z,8.47
2019-01-21T07:47:03.168Z,8.27
2019-01-21T07:52:40.119Z,7.97
2019-01-21T07:58:10.540Z,7.70
2019-01-21T08:03:41.177Z,8.90
2019-01-21T08:09:19.481Z,8.20
2019-01-21T08:14:53.184Z,8.10
2019-01-21T08:20:14.823Z,8.73
2019-01-21T08:25:41.936Z,8.33
2019-01-21T08:31:27.853Z,11.17
2019-01-21T08:36:58.092Z,17.50
2019-01-21T08:42:37.830Z,20.53
2019-01-21T08:48:14.228Z,19.97
2019-01-21T08:53:50.229Z,15.13
2019-01-21T08:59:41.901Z,42.20
2019-01-21T09:05:06.111Z,12.67
2019-01-21T09:10:48.883Z,11.00
2019-01-21T09:16:16.533Z,32.97
2019-01-21T09:21:43.992Z,12.20
2019-01-21T09:27:22.218Z,11.37
2019-01-21T09:32:55.787Z,14.23
2019-01-21T09:38:44.168Z,12.80
2019-01-21T09:44:11.542Z,13.17
2019-01-21T09:49:28.963Z,12.90
2019-01-21T09:54:48.393Z,15.63
2019-01-21T10:00:16.226Z,12.37
2019-01-21T10:05:36.866Z,13.93
2019-01-21T10:11:22.120Z,13.40
2019-01-21T10:16:44.117Z,12.53
2019-01-21T10:22:24.059Z,14.63
2019-01-21T10:28:08.638Z,14.63
2019-01-21T10:33:34.142Z,13.47
2019-01-21T10:39:12.514Z,13.87
2019-01-21T10:44:42.861Z,13.67
2019-01-21T10:50:20.750Z,9.27
2019-01-21T10:55:47.595Z,12.67
2019-01-21T11:01:09.132Z,12.70
2019-01-21T11:06:56.229Z,12.80
2019-01-21T11:12:38.164Z,13.80
2019-01-21T11:18:02.814Z,11.38
2019-01-21T11:23:24.464Z,12.90
2019-01-21T11:29:13.763Z,13.63
2019-01-21T11:34:44.162Z,10.73
2019-01-21T11:40:17.700Z,9.63
2019-01-21T11:45:51.365Z,13.03
2019-01-21T11:51:25.373Z,13.90
2019-01-21T11:56:55.535Z,11.47
2019-01-21T12:02:26.072Z,10.57
2019-01-21T12:07:56.721Z,13.33
2019-01-21T12:13:27.372Z,11.30
2019-01-21T12:18:48.919Z,11.68
2019-01-21T12:24:10.626Z,11.63
2019-01-21T12:29:48.845Z,10.87
2019-01-21T12:35:16.308Z,12.43
2019-01-21T12:40:37.897Z,12.53
2019-01-21T12:46:02.547Z,12.90
2019-01-21T12:51:30.186Z,12.93
2019-01-21T12:56:57.742Z,8.53
2019-01-21T13:02:53.542Z,12.47
2019-01-21T13:08:17.741Z,11.20
2019-01-21T13:13:46.042Z,11.87
2019-01-21T13:19:25.849Z,12.00
2019-01-21T13:24:51.493Z,12.63
2019-01-21T13:30:22.067Z,13.68
2019-01-21T13:36:01.881Z,13.90
2019-01-21T13:41:26.254Z,12.83
2019-01-21T13:47:14.603Z,14.33
2019-01-21T13:53:00.576Z,16.07
2019-01-21T13:58:50.636Z,13.70
2019-01-21T14:04:41.072Z,13.93
2019-01-21T14:10:11.488Z,14.20
2019-01-21T14:15:49.626Z,11.40
2019-01-21T14:21:13.918Z,14.33
2019-01-21T14:27:10.773Z,14.07
2019-01-21T14:32:32.527Z,13.70
2019-01-21T14:38:03.117Z,14.70
2019-01-21T14:43:59.633Z,15.10
2019-01-21T14:49:27.387Z,14.68
2019-01-21T14:55:00.866Z,14.73
2019-01-21T15:00:25.013Z,16.65
2019-01-21T15:06:01.742Z,14.47
2019-01-21T15:11:32.270Z,15.53
2019-01-21T15:16:53.953Z,15.67
2019-01-21T15:22:31.686Z,14.60
2019-01-21T15:28:25.071Z,14.77
2019-01-21T15:33:55.290Z,15.07
2019-01-21T15:39:16.867Z,15.53
2019-01-21T15:44:41.008Z,15.67
2019-01-21T15:50:14.784Z,15.90
2019-01-21T15:55:38.970Z,14.93
2019-01-21T16:01:18.881Z,16.87
2019-01-21T16:06:43.746Z,19.77
2019-01-21T16:12:08.068Z,17.57
2019-01-21T16:17:38.567Z,15.43
2019-01-21T16:23:21.159Z,16.97
2019-01-21T16:29:03.413Z,16.97
2019-01-21T16:34:27.933Z,17.97
2019-01-21T16:40:05.869Z,16.87
2019-01-21T16:45:24.446Z,17.37
2019-01-21T16:50:43.175Z,15.70
2019-01-21T16:56:12.678Z,16.17
2019-01-21T17:01:33.099Z,18.30
2019-01-21T17:06:52.482Z,19.10
2019-01-21T17:12:12.848Z,18.23
2019-01-21T17:17:44.333Z,18.37
2019-01-21T17:23:04.744Z,17.57
2019-01-21T17:28:23.391Z,17.87
2019-01-21T17:33:44.963Z,15.90
2019-01-21T17:39:05.123Z,18.47
2019-01-21T17:44:23.688Z,18.07
2019-01-21T17:49:42.393Z,20.13
2019-01-21T17:55:01.051Z,18.95
2019-01-21T18:00:26.764Z,10.93
2019-01-21T18:05:45.630Z,18.37
2019-01-21T18:11:04.552Z,18.00
2019-01-21T18:16:23.227Z,18.93
2019-01-21T18:21:41.873Z,16.70
2019-01-21T18:27:00.508Z,18.33
2019-01-21T18:32:58.952Z,17.20
2019-01-21T18:38:17.561Z,17.63
2019-01-21T18:43:36.205Z,17.40
2019-01-21T18:48:55.262Z,16.35
2019-01-21T18:54:13.990Z,18.87
2019-01-21T18:59:32.623Z,19.80
2019-01-21T19:04:51.396Z,18.33
2019-01-21T19:10:12.747Z,18.12
2019-01-21T19:15:32.871Z,16.83
2019-01-21T19:20:51.813Z,16.00
2019-01-21T19:26:10.712Z,16.93
2019-01-21T19:31:29.517Z,16.77
2019-01-21T19:36:48.201Z,17.73
2019-01-21T19:42:06.832Z,17.07
2019-01-21T19:47:25.990Z,16.00
2019-01-21T19:52:44.660Z,19.03
2019-01-21T19:58:03.271Z,17.60
2019-01-21T20:03:24.422Z,18.13
2019-01-21T20:08:43.166Z,16.77
2019-01-21T20:14:01.828Z,16.60
2019-01-21T20:19:21.836Z,17.47
2019-01-21T20:24:40.537Z,20.13
2019-01-21T20:29:59.070Z,17.53
2019-01-21T20:35:18.906Z,17.73
2019-01-21T20:40:45.116Z,19.50
2019-01-21T20:46:04.267Z,19.80
2019-01-21T20:51:34.627Z,20.23
2019-01-21T20:56:54.639Z,19.87
2019-01-21T21:02:13.321Z,20.57
2019-01-21T21:07:31.865Z,20.43
2019-01-21T21:12:50.507Z,20.53
2019-01-21T21:18:10.761Z,21.23
2019-01-21T21:23:29.719Z,21.30
2019-01-21T21:34:05.156Z,18.53
2019-01-21T21:39:23.889Z,19.35
2019-01-21T21:44:42.479Z,17.50
2019-01-21T21:50:01.158Z,18.50
2019-01-21T21:55:19.826Z,17.07
2019-01-21T22:00:38.486Z,19.97
2019-01-21T22:05:57.121Z,18.17
2019-01-21T22:11:15.737Z,19.32
2019-01-21T22:16:34.464Z,20.17
2019-01-21T22:21:52.990Z,17.47
2019-01-21T22:27:11.650Z,19.50
2019-01-21T22:32:30.318Z,18.70
2019-01-21T22:37:48.946Z,19.17
2019-01-21T22:43:07.596Z,18.73
2019-01-21T22:48:26.213Z,19.90
2019-01-21T22:53:44.831Z,18.27
2019-01-21T22:59:03.474Z,19.13
2019-01-21T23:04:22.417Z,18.47
2019-01-21T23:09:41.314Z,18.30
2019-01-21T23:15:00.066Z,18.70
2019-01-21T23:20:18.885Z,16.83
2019-01-21T23:25:37.511Z,17.87
2019-01-21T23:30:56.177Z,17.97
2019-01-21T23:36:14.822Z,17.53
2019-01-21T23:41:33.499Z,18.87
2019-01-21T23:46:52.054Z,16.87
2019-01-21T23:52:10.693Z,17.77
2019-01-21T23:57:29.261Z,17.93
